Time;durP1;ratioP1;P1;durP2;ratioP2;P2;SDS_P1;SDS_P2;PMS_P1;PMS_P2;Temp;Humidity;BMP_temperature;BMP_pressure;BME280_temperature;BME280_humidity;BME280_pressure;Samples;Min_cycle;Max_cycle;Signal;HPM_P1;HPM_P2
2020/12/23 00:00:13;;;;;;;93.40;29.92;;;10.80;99.90;;;;;;5122757;27;20031;-61
2020/12/23 00:02:41;;;;;;;100.55;29.92;;;10.70;99.90;;;;;;5112182;27;20485;-60
2020/12/23 00:05:09;;;;;;;86.05;30.65;;;10.70;99.90;;;;;;5115323;27;20110;-60
2020/12/23 00:07:35;;;;;;;111.35;32.30;;;10.70;99.90;;;;;;5120575;27;20020;-61
2020/12/23 00:10:01;;;;;;;112.65;33.22;;;10.50;99.90;;;;;;5117835;27;20015;-61
2020/12/23 00:12:26;;;;;;;86.57;29.00;;;10.50;99.90;;;;;;5116606;27;20027;-61
2020/12/23 00:14:52;;;;;;;102.18;32.72;;;10.40;99.90;;;;;;5105592;28;20030;-59
2020/12/23 00:17:19;;;;;;;101.40;33.17;;;10.40;99.90;;;;;;5116078;27;20019;-60
2020/12/23 00:19:45;;;;;;;96.60;31.02;;;10.50;99.90;;;;;;5129850;27;20030;-60
2020/12/23 00:22:11;;;;;;;115.15;34.47;;;10.50;99.90;;;;;;5125274;27;20019;-61
2020/12/23 00:24:36;;;;;;;131.68;37.08;;;10.50;99.90;;;;;;5130030;27;20393;-61
2020/12/23 00:27:02;;;;;;;123.15;37.53;;;10.40;99.90;;;;;;5141528;27;20024;-60
2020/12/23 00:29:27;;;;;;;115.28;37.42;;;10.40;99.90;;;;;;5134341;27;20031;-60
2020/12/23 00:31:53;;;;;;;145.35;37.28;;;10.40;99.90;;;;;;5132275;28;20024;-60
2020/12/23 00:34:19;;;;;;;114.55;35.97;;;10.40;99.90;;;;;;5141762;27;20073;-61
2020/12/23 00:36:51;;;;;;;98.60;33.33;;;10.50;99.90;;;;;;5123758;28;20473;-61
2020/12/23 00:39:16;;;;;;;118.70;35.37;;;10.50;99.90;;;;;;5117690;27;20062;-61
2020/12/23 00:41:44;;;;;;;122.97;37.95;;;10.50;99.90;;;;;;5105748;28;20020;-60
2020/12/23 00:44:09;;;;;;;114.78;36.00;;;10.50;99.90;;;;;;5112779;28;20078;-60
2020/12/23 00:46:35;;;;;;;154.95;39.30;;;10.50;99.90;;;;;;5112949;28;20031;-62
2020/12/23 00:49:00;;;;;;;115.45;36.22;;;10.50;99.90;;;;;;5110703;28;20027;-60
2020/12/23 00:51:26;;;;;;;143.27;36.78;;;10.50;99.90;;;;;;5110048;28;20026;-60
2020/12/23 00:53:51;;;;;;;144.55;41.67;;;10.50;99.90;;;;;;5109224;28;20072;-61
2020/12/23 00:56:19;;;;;;;167.57;41.58;;;10.50;99.90;;;;;;5110415;27;20023;-60
2020/12/23 00:58:44;;;;;;;175.57;40.75;;;10.60;99.90;;;;;;5112161;27;20407;-60
2020/12/23 01:01:10;;;;;;;198.30;46.28;;;10.60;99.90;;;;;;5113065;27;20023;-60
2020/12/23 01:03:35;;;;;;;159.25;41.60;;;10.60;99.90;;;;;;5109100;27;20032;-62
2020/12/23 01:06:09;;;;;;;196.05;45.72;;;10.60;99.90;;;;;;5109229;27;20023;-62
2020/12/23 01:08:35;;;;;;;223.07;47.33;;;10.70;99.90;;;;;;5109447;27;20025;-61
2020/12/23 01:11:01;;;;;;;107.55;37.63;;;10.70;99.90;;;;;;5108688;28;20160;-60
2020/12/23 01:13:26;;;;;;;203.48;48.95;;;10.70;99.90;;;;;;5106843;28;20087;-60
2020/12/23 01:15:52;;;;;;;189.15;44.85;;;10.80;99.90;;;;;;5099768;28;20370;-60
2020/12/23 01:18:17;;;;;;;207.13;47.35;;;10.80;99.90;;;;;;5108734;28;20024;-61
2020/12/23 01:20:43;;;;;;;214.77;47.90;;;10.90;99.90;;;;;;5103247;27;20058;-61
2020/12/23 01:23:09;;;;;;;199.13;47.25;;;11.00;99.90;;;;;;5116041;27;20023;-61
2020/12/23 01:25:34;;;;;;;190.38;46.50;;;11.00;99.90;;;;;;5100922;27;20015;-60
2020/12/23 01:28:00;;;;;;;195.88;46.80;;;11.00;99.90;;;;;;5111100;27;20115;-60
2020/12/23 01:30:26;;;;;;;182.05;46.38;;;11.10;99.90;;;;;;5093493;28;20064;-61
2020/12/23 01:32:51;;;;;;;174.38;45.53;;;11.10;99.90;;;;;;5106948;28;20248;-60
2020/12/23 01:35:17;;;;;;;166.43;45.25;;;11.20;99.90;;;;;;5108708;28;20098;-60
2020/12/23 01:37:42;;;;;;;205.23;48.83;;;11.20;99.90;;;;;;5105216;28;20027;-60
2020/12/23 01:40:08;;;;;;;131.68;40.72;;;11.10;99.90;;;;;;5108677;28;20541;-60
2020/12/23 01:42:35;;;;;;;182.25;49.15;;;11.10;99.90;;;;;;5108266;28;20055;-59
2020/12/23 01:45:01;;;;;;;145.77;43.60;;;11.10;99.90;;;;;;5106246;28;20051;-59
2020/12/23 01:47:30;;;;;;;170.48;46.83;;;11.10;99.90;;;;;;5109620;28;20079;-59
2020/12/23 01:49:56;;;;;;;181.43;47.88;;;11.20;99.90;;;;;;5098297;28;20073;-61
2020/12/23 01:52:23;;;;;;;216.60;53.53;;;11.20;99.90;;;;;;5109226;28;20636;-60
2020/12/23 01:54:49;;;;;;;179.55;49.47;;;11.20;99.90;;;;;;5106594;28;20035;-60
2020/12/23 01:57:15;;;;;;;167.05;46.65;;;11.20;99.90;;;;;;5110024;28;20272;-60
2020/12/23 01:59:47;;;;;;;171.73;48.88;;;11.30;99.90;;;;;;5110982;28;20077;-60
2020/12/23 02:02:36;;;;;;;138.35;44.97;;;11.30;99.90;;;;;;5110589;28;20016;-60
2020/12/23 02:05:04;;;;;;;199.00;49.17;;;11.30;99.90;;;;;;5105801;28;20039;-60
2020/12/23 02:07:29;;;;;;;131.80;42.65;;;11.30;99.90;;;;;;5107148;28;20038;-60
2020/12/23 02:09:57;;;;;;;140.95;44.42;;;11.30;99.90;;;;;;5112201;28;20020;-60
2020/12/23 02:12:23;;;;;;;180.75;50.80;;;11.30;99.90;;;;;;5111297;28;20027;-61
2020/12/23 02:14:49;;;;;;;178.55;49.78;;;11.30;99.90;;;;;;5110167;28;20046;-60
2020/12/23 02:17:15;;;;;;;159.23;48.83;;;11.30;99.90;;;;;;5119766;28;20020;-61
2020/12/23 02:19:50;;;;;;;225.63;54.92;;;11.30;99.90;;;;;;5109731;28;20051;-61
2020/12/23 02:22:29;;;;;;;166.65;50.45;;;11.30;99.90;;;;;;5107901;28;20126;-60
2020/12/23 02:24:54;;;;;;;129.80;45.95;;;11.20;99.90;;;;;;5109182;28;20035;-61
2020/12/23 02:27:21;;;;;;;176.05;49.75;;;11.20;99.90;;;;;;5107570;28;20043;-60
2020/12/23 02:29:49;;;;;;;196.95;51.78;;;11.20;99.90;;;;;;5109784;28;20041;-60
2020/12/23 02:32:15;;;;;;;183.95;51.22;;;11.30;99.90;;;;;;5109056;28;20550;-60
2020/12/23 02:34:41;;;;;;;173.90;50.08;;;11.30;99.90;;;;;;5108213;28;20027;-60
2020/12/23 02:37:08;;;;;;;196.63;53.20;;;11.20;99.90;;;;;;5104705;28;20111;-60
2020/12/23 02:39:34;;;;;;;156.45;47.85;;;11.30;99.90;;;;;;5107971;28;20038;-60
2020/12/23 02:42:02;;;;;;;182.32;53.38;;;11.40;99.90;;;;;;5106805;28;20031;-62
2020/12/23 02:44:28;;;;;;;167.07;50.20;;;11.30;99.90;;;;;;5111816;28;20054;-61
2020/12/23 02:46:59;;;;;;;173.80;51.40;;;11.30;99.90;;;;;;5110555;28;20038;-62
2020/12/23 02:49:26;;;;;;;122.67;45.73;;;11.30;99.90;;;;;;5111167;28;20414;-60
2020/12/23 02:51:53;;;;;;;172.45;51.42;;;11.30;99.90;;;;;;5108065;28;20024;-61
2020/12/23 02:54:19;;;;;;;157.88;50.20;;;11.30;99.90;;;;;;5116717;27;20031;-60
2020/12/23 02:56:44;;;;;;;169.25;51.05;;;11.30;99.90;;;;;;5111794;28;20539;-61
2020/12/23 02:59:10;;;;;;;151.57;49.58;;;11.30;99.90;;;;;;5111978;28;20035;-61
2020/12/23 03:01:36;;;;;;;169.05;50.58;;;11.40;99.90;;;;;;5111033;27;20034;-61
2020/12/23 03:04:03;;;;;;;131.75;46.92;;;11.30;99.90;;;;;;5110892;28;20027;-61
2020/12/23 03:06:28;;;;;;;144.95;45.95;;;11.30;99.90;;;;;;5114506;27;20114;-60
2020/12/23 03:08:54;;;;;;;154.48;48.85;;;11.30;99.90;;;;;;5111057;28;20137;-61
2020/12/23 03:11:20;;;;;;;133.30;45.60;;;11.40;99.90;;;;;;5110621;28;20027;-61
2020/12/23 03:13:45;;;;;;;122.00;44.97;;;11.40;99.90;;;;;;5111862;27;20035;-61
2020/12/23 03:16:11;;;;;;;131.38;45.10;;;11.40;99.90;;;;;;5107145;27;20023;-60
2020/12/23 03:18:39;;;;;;;118.75;42.92;;;11.40;99.90;;;;;;5100777;28;20023;-60
2020/12/23 03:21:05;;;;;;;116.75;43.90;;;11.50;99.90;;;;;;5109469;28;20016;-60
2020/12/23 03:23:31;;;;;;;134.05;45.28;;;11.40;99.90;;;;;;5116239;27;20027;-61
2020/12/23 03:25:56;;;;;;;107.65;39.60;;;11.40;99.90;;;;;;5115108;27;20023;-62
2020/12/23 03:28:22;;;;;;;90.28;40.17;;;11.40;99.90;;;;;;5113979;27;20024;-60
2020/12/23 03:30:47;;;;;;;120.15;42.08;;;11.40;99.90;;;;;;5115692;27;20120;-61
2020/12/23 03:33:12;;;;;;;139.32;44.22;;;11.40;99.90;;;;;;5117190;27;20061;-61
2020/12/23 03:35:38;;;;;;;84.68;36.92;;;11.50;99.90;;;;;;5110295;27;20046;-61
2020/12/23 03:38:04;;;;;;;130.52;43.20;;;11.50;99.90;;;;;;5112273;28;20020;-61
2020/12/23 03:40:29;;;;;;;100.68;36.80;;;11.40;99.90;;;;;;5114506;28;20076;-61
2020/12/23 03:42:55;;;;;;;115.38;40.80;;;11.50;99.90;;;;;;5100856;28;20024;-61
2020/12/23 03:45:20;;;;;;;118.55;40.67;;;11.50;99.90;;;;;;5116091;27;20051;-60
2020/12/23 03:47:45;;;;;;;121.57;42.15;;;11.50;99.90;;;;;;5103977;27;20028;-60
2020/12/23 03:50:11;;;;;;;97.18;38.00;;;11.50;99.90;;;;;;5117673;27;20059;-60
2020/12/23 03:52:37;;;;;;;117.45;40.05;;;11.50;99.90;;;;;;5113862;27;20262;-60
2020/12/23 03:55:02;;;;;;;126.97;41.28;;;11.50;99.90;;;;;;5109092;28;20022;-61
2020/12/23 03:57:28;;;;;;;129.23;42.75;;;11.50;99.90;;;;;;5110471;28;20058;-61
2020/12/23 03:59:53;;;;;;;110.55;36.92;;;11.50;99.90;;;;;;5113056;28;20539;-61
2020/12/23 04:02:19;;;;;;;76.70;34.20;;;11.50;99.90;;;;;;5111843;27;20028;-62
2020/12/23 04:04:44;;;;;;;106.55;38.00;;;11.50;99.90;;;;;;5111590;27;20034;-60
2020/12/23 04:07:10;;;;;;;122.70;41.05;;;11.50;99.90;;;;;;5104920;28;20047;-60
2020/12/23 04:09:35;;;;;;;128.20;39.75;;;11.60;99.90;;;;;;5110431;28;20107;-60
2020/12/23 04:12:01;;;;;;;131.98;38.10;;;11.60;99.90;;;;;;5109663;28;20120;-61
2020/12/23 04:14:26;;;;;;;95.18;36.22;;;11.60;99.90;;;;;;5107226;27;20297;-61
2020/12/23 04:16:52;;;;;;;118.13;37.92;;;11.60;99.90;;;;;;5116468;27;20027;-61
2020/12/23 04:19:17;;;;;;;117.90;36.25;;;11.60;99.90;;;;;;5121091;27;20030;-61
2020/12/23 04:21:43;;;;;;;103.97;36.58;;;11.60;99.90;;;;;;5112245;27;20490;-61
2020/12/23 04:24:08;;;;;;;106.30;35.60;;;11.60;99.90;;;;;;5114897;27;20439;-61
2020/12/23 04:26:34;;;;;;;108.07;36.53;;;11.60;99.90;;;;;;5112353;27;20053;-61
2020/12/23 04:29:00;;;;;;;126.43;36.20;;;11.70;99.90;;;;;;5111219;27;20074;-61
2020/12/23 04:31:25;;;;;;;109.63;34.83;;;11.70;99.90;;;;;;5110007;28;20487;-61
2020/12/23 04:33:50;;;;;;;86.78;32.00;;;11.70;99.90;;;;;;5103260;28;20072;-61
2020/12/23 04:36:16;;;;;;;95.88;32.13;;;11.70;99.90;;;;;;5108940;27;20023;-61
2020/12/23 04:38:42;;;;;;;73.45;30.48;;;11.60;99.90;;;;;;5097936;27;20012;-61
2020/12/23 04:41:07;;;;;;;90.50;31.35;;;11.60;99.90;;;;;;5109773;28;20024;-61
2020/12/23 04:43:33;;;;;;;79.97;28.27;;;11.60;99.90;;;;;;5108907;28;20032;-61
2020/12/23 04:46:01;;;;;;;99.97;30.48;;;11.60;99.90;;;;;;5109421;28;20038;-61
2020/12/23 04:48:32;;;;;;;84.03;29.05;;;11.60;99.90;;;;;;5108014;28;20098;-60
2020/12/23 04:50:57;;;;;;;57.70;25.27;;;11.60;99.90;;;;;;5115233;27;20384;-61
2020/12/23 04:53:23;;;;;;;78.45;27.30;;;11.60;99.90;;;;;;5117312;27;20024;-62
2020/12/23 04:55:49;;;;;;;50.58;23.65;;;11.60;99.90;;;;;;5123319;27;20042;-61
2020/12/23 04:58:15;;;;;;;79.00;25.05;;;11.60;99.90;;;;;;5117902;27;20212;-61
2020/12/23 05:00:40;;;;;;;70.72;25.42;;;11.60;99.90;;;;;;5122075;27;20038;-63
2020/12/23 05:03:06;;;;;;;80.75;25.25;;;11.70;99.90;;;;;;5123645;27;20035;-61
2020/12/23 05:05:31;;;;;;;57.80;23.38;;;11.60;99.90;;;;;;5109267;27;20035;-61
2020/12/23 05:07:57;;;;;;;54.20;22.30;;;11.70;99.90;;;;;;5113305;27;20378;-61
2020/12/23 05:10:27;;;;;;;77.35;25.70;;;11.70;99.90;;;;;;5110437;27;20096;-61
2020/12/23 05:12:53;;;;;;;60.08;23.88;;;11.70;99.90;;;;;;5109398;27;20724;-61
2020/12/23 05:15:19;;;;;;;75.55;24.60;;;11.70;99.90;;;;;;5109121;28;20024;-61
2020/12/23 05:17:45;;;;;;;73.85;25.75;;;11.60;99.90;;;;;;5108930;28;20023;-63
2020/12/23 05:20:11;;;;;;;62.70;22.30;;;11.70;99.90;;;;;;5118866;27;20068;-61
2020/12/23 05:22:37;;;;;;;68.40;23.25;;;11.70;99.90;;;;;;5105506;27;20412;-61
2020/12/23 05:25:04;;;;;;;57.28;21.27;;;11.70;99.90;;;;;;5110866;27;20072;-61
2020/12/23 05:27:33;;;;;;;49.95;19.95;;;11.70;99.90;;;;;;5109668;28;20028;-61
2020/12/23 05:30:01;;;;;;;58.63;20.77;;;11.60;99.90;;;;;;5112022;27;20023;-61
2020/12/23 05:32:26;;;;;;;75.90;23.65;;;11.70;99.90;;;;;;5107844;28;20438;-62
2020/12/23 05:34:53;;;;;;;60.50;20.80;;;11.70;99.90;;;;;;5107941;28;20012;-60
2020/12/23 05:37:21;;;;;;;44.85;18.67;;;11.70;99.90;;;;;;5104428;28;20027;-61
2020/12/23 05:39:47;;;;;;;42.95;17.83;;;11.70;99.90;;;;;;5108461;28;20150;-60
2020/12/23 05:42:15;;;;;;;52.17;19.00;;;11.80;99.90;;;;;;5107547;28;20400;-61
2020/12/23 05:44:40;;;;;;;42.42;17.30;;;11.80;99.90;;;;;;5105888;28;20075;-61
2020/12/23 05:47:06;;;;;;;32.28;16.48;;;11.80;99.90;;;;;;5108937;28;20055;-60
2020/12/23 05:49:37;;;;;;;33.00;15.35;;;11.80;99.90;;;;;;5109401;28;20377;-61
2020/12/23 05:52:04;;;;;;;27.03;15.30;;;11.80;99.90;;;;;;5115141;28;20392;-60
2020/12/23 05:54:30;;;;;;;24.10;14.18;;;11.80;99.90;;;;;;5124715;28;20111;-62
2020/12/23 05:56:56;;;;;;;24.38;14.60;;;11.80;99.90;;;;;;5121846;28;20059;-60
2020/12/23 05:59:21;;;;;;;29.65;16.60;;;11.80;99.90;;;;;;5118282;28;20073;-60
2020/12/23 06:01:49;;;;;;;31.88;16.40;;;11.80;99.90;;;;;;5116658;28;20043;-63
2020/12/23 06:04:15;;;;;;;32.63;17.83;;;11.90;99.90;;;;;;5112669;28;20024;-61
2020/12/23 06:06:43;;;;;;;20.40;14.13;;;11.90;99.90;;;;;;5111031;28;20034;-60
2020/12/23 06:09:11;;;;;;;29.23;16.13;;;11.90;99.90;;;;;;5110757;28;20073;-61
2020/12/23 06:11:40;;;;;;;27.27;17.23;;;11.80;99.90;;;;;;5113660;28;20019;-61
2020/12/23 06:14:14;;;;;;;22.70;14.98;;;11.80;99.90;;;;;;5108142;28;20051;-61
2020/12/23 06:16:45;;;;;;;25.60;15.52;;;11.90;99.90;;;;;;5119321;28;20031;-61
2020/12/23 06:19:12;;;;;;;19.92;14.15;;;11.90;99.90;;;;;;5114255;28;20067;-61
2020/12/23 06:21:39;;;;;;;23.10;15.25;;;11.90;99.90;;;;;;5110721;28;20524;-65
2020/12/23 06:24:11;;;;;;;17.48;13.27;;;11.80;99.90;;;;;;5117732;28;20054;-60
2020/12/23 06:26:38;;;;;;;24.63;14.70;;;11.80;99.90;;;;;;5145514;27;20014;-61
2020/12/23 06:29:07;;;;;;;16.67;13.18;;;11.90;99.90;;;;;;5143958;27;20018;-62
2020/12/23 06:31:45;;;;;;;24.80;15.65;;;11.90;99.90;;;;;;5137422;27;20019;-60
2020/12/23 06:34:17;;;;;;;25.42;14.63;;;11.80;99.90;;;;;;5132609;27;20023;-60
2020/12/23 06:36:44;;;;;;;19.13;13.40;;;11.90;99.90;;;;;;5119349;27;20028;-61
2020/12/23 06:39:19;;;;;;;23.70;14.52;;;11.90;99.90;;;;;;5108187;27;20039;-59
2020/12/23 06:42:14;;;;;;;20.02;12.95;;;11.80;99.90;;;;;;5115024;27;20027;-60
2020/12/23 06:44:42;;;;;;;21.15;12.23;;;11.80;99.90;;;;;;5112956;27;20035;-61
2020/12/23 06:47:17;;;;;;;23.40;14.32;;;11.90;99.90;;;;;;5118398;27;20029;-61
2020/12/23 06:49:50;;;;;;;27.35;13.25;;;11.90;99.90;;;;;;5109650;27;20446;-61
2020/12/23 06:52:22;;;;;;;22.55;14.00;;;11.80;99.90;;;;;;5095421;28;20028;-60
2020/12/23 06:54:51;;;;;;;24.43;13.50;;;11.80;99.90;;;;;;5106128;28;20162;-61
2020/12/23 06:57:35;;;;;;;24.13;13.10;;;11.80;99.90;;;;;;5109930;28;20077;-62
2020/12/23 07:00:20;;;;;;;24.80;13.45;;;11.80;99.90;;;;;;5106399;28;20052;-60
2020/12/23 07:02:57;;;;;;;19.70;10.90;;;11.80;99.90;;;;;;5108315;28;20099;-61
2020/12/23 07:05:22;;;;;;;20.27;13.48;;;11.80;99.90;;;;;;5108433;28;20277;-61
2020/12/23 07:07:58;;;;;;;16.42;11.80;;;11.80;99.90;;;;;;5109171;28;20062;-61
2020/12/23 07:10:26;;;;;;;20.60;13.07;;;11.80;99.90;;;;;;5107520;27;20020;-61
2020/12/23 07:12:57;;;;;;;21.23;13.45;;;11.80;99.90;;;;;;5110141;28;20011;-61
2020/12/23 07:15:30;;;;;;;18.13;12.73;;;11.80;99.90;;;;;;5123460;28;20034;-61
2020/12/23 07:18:06;;;;;;;20.95;13.35;;;11.80;99.90;;;;;;5134005;28;20031;-61
2020/12/23 07:21:02;;;;;;;22.05;14.65;;;11.80;99.90;;;;;;5130851;28;20042;-60
2020/12/23 07:23:29;;;;;;;18.38;12.18;;;11.70;99.90;;;;;;5103863;28;20071;-61
2020/12/23 07:26:01;;;;;;;23.75;13.65;;;11.80;99.90;;;;;;5111536;28;20051;-61
2020/12/23 07:28:39;;;;;;;19.55;12.65;;;11.70;99.90;;;;;;5087783;28;20098;-62
2020/12/23 07:31:07;;;;;;;14.18;9.43;;;11.80;99.90;;;;;;5106072;28;20103;-61
2020/12/23 07:33:34;;;;;;;18.98;11.13;;;11.70;99.90;;;;;;5111226;27;20023;-62
2020/12/23 07:36:01;;;;;;;14.98;9.93;;;11.80;99.90;;;;;;5110581;28;20019;-61
2020/12/23 07:38:31;;;;;;;15.00;9.90;;;11.80;99.90;;;;;;5111237;28;20450;-61
2020/12/23 07:40:57;;;;;;;10.35;7.60;;;11.80;99.90;;;;;;5107493;28;20024;-61
2020/12/23 07:43:23;;;;;;;13.60;8.10;;;11.80;99.90;;;;;;5110352;28;20028;-61
2020/12/23 07:45:50;;;;;;;10.60;7.75;;;11.80;99.90;;;;;;5111353;28;20485;-62
2020/12/23 07:48:18;;;;;;;10.68;7.63;;;11.70;99.90;;;;;;5116305;27;20027;-61
2020/12/23 07:50:44;;;;;;;11.73;7.60;;;11.80;99.90;;;;;;5118349;28;20079;-62
2020/12/23 07:53:18;;;;;;;15.50;8.57;;;11.70;99.90;;;;;;5101995;28;20024;-62
2020/12/23 07:55:46;;;;;;;10.93;7.13;;;11.70;99.90;;;;;;5111908;28;20473;-62
2020/12/23 07:58:13;;;;;;;11.50;7.68;;;11.70;99.90;;;;;;5105293;28;20038;-62
2020/12/23 08:00:40;;;;;;;14.05;9.30;;;11.70;99.90;;;;;;5106051;27;20019;-62
2020/12/23 08:03:09;;;;;;;17.30;10.07;;;11.80;99.90;;;;;;5106305;28;20024;-62
2020/12/23 08:05:35;;;;;;;12.43;7.93;;;11.80;99.90;;;;;;5111707;28;20035;-60
2020/12/23 08:08:01;;;;;;;15.57;9.30;;;11.80;99.90;;;;;;5112050;28;20033;-61
2020/12/23 08:10:26;;;;;;;17.20;8.82;;;11.80;99.90;;;;;;5114598;27;20076;-61
2020/12/23 08:12:55;;;;;;;18.20;9.63;;;11.80;99.90;;;;;;5111059;28;20022;-61
2020/12/23 08:15:21;;;;;;;20.92;9.25;;;11.80;99.90;;;;;;5111618;28;20043;-61
2020/12/23 08:17:47;;;;;;;17.92;9.35;;;11.80;99.90;;;;;;5110608;28;20028;-62
2020/12/23 08:20:15;;;;;;;12.48;7.80;;;11.80;99.90;;;;;;5110598;27;20051;-61
2020/12/23 08:22:45;;;;;;;13.95;6.97;;;11.80;99.90;;;;;;5113168;27;20047;-62
2020/12/23 08:25:11;;;;;;;13.38;6.53;;;11.80;99.90;;;;;;5115327;27;20165;-61
2020/12/23 08:27:39;;;;;;;14.15;7.18;;;11.80;99.90;;;;;;5098654;27;20020;-61
2020/12/23 08:30:10;;;;;;;10.50;5.70;;;11.90;99.90;;;;;;5109838;28;20073;-62
2020/12/23 08:32:43;;;;;;;9.30;5.43;;;11.90;99.90;;;;;;5109932;28;20051;-63
2020/12/23 08:35:09;;;;;;;10.35;5.72;;;11.80;99.90;;;;;;5105604;28;20012;-61
2020/12/23 08:37:35;;;;;;;9.02;6.03;;;11.80;99.90;;;;;;5098428;28;20028;-61
2020/12/23 08:40:07;;;;;;;8.00;6.38;;;11.80;99.90;;;;;;5099590;28;20420;-61
2020/12/23 08:42:33;;;;;;;13.70;7.65;;;11.90;99.90;;;;;;5105226;28;20074;-61
2020/12/23 08:44:58;;;;;;;10.40;8.13;;;11.80;99.90;;;;;;5108576;28;20055;-63
2020/12/23 08:47:27;;;;;;;10.55;8.45;;;11.90;99.90;;;;;;5110496;28;20038;-62
2020/12/23 08:49:54;;;;;;;12.60;9.18;;;11.90;99.90;;;;;;5110344;28;20542;-62
2020/12/23 08:52:22;;;;;;;10.38;8.82;;;11.80;99.90;;;;;;5116410;27;20051;-62
2020/12/23 08:54:49;;;;;;;16.50;9.18;;;11.90;99.90;;;;;;5118377;27;20054;-62
2020/12/23 08:57:23;;;;;;;12.60;9.35;;;11.90;99.90;;;;;;5099250;28;20034;-61
2020/12/23 08:59:49;;;;;;;12.70;9.32;;;11.80;99.90;;;;;;5109934;28;20028;-62
2020/12/23 09:02:16;;;;;;;12.95;9.55;;;11.90;99.90;;;;;;5109154;28;20400;-61
2020/12/23 09:04:42;;;;;;;12.27;8.73;;;11.90;99.90;;;;;;5102354;27;20114;-62
2020/12/23 09:07:07;;;;;;;13.43;7.68;;;11.90;99.90;;;;;;5109038;28;20533;-64
2020/12/23 09:09:34;;;;;;;12.35;8.70;;;11.90;99.90;;;;;;5109561;28;20019;-62
2020/12/23 09:12:01;;;;;;;7.35;6.25;;;11.90;99.90;;;;;;5107006;28;20073;-62
2020/12/23 09:14:37;;;;;;;13.15;6.55;;;12.00;99.90;;;;;;5107853;28;20139;-63
2020/12/23 09:17:08;;;;;;;7.10;5.43;;;12.00;99.90;;;;;;5108189;28;20028;-62
2020/12/23 09:20:00;;;;;;;9.10;5.85;;;12.00;99.90;;;;;;5113820;27;20034;-62
2020/12/23 09:22:37;;;;;;;7.90;6.18;;;12.00;99.90;;;;;;5108015;27;20043;-61
2020/12/23 09:25:22;;;;;;;6.72;5.75;;;12.00;99.90;;;;;;5105872;28;20028;-62
2020/12/23 09:28:08;;;;;;;6.43;5.68;;;12.00;99.90;;;;;;5104132;28;20024;-61
2020/12/23 09:30:45;;;;;;;9.40;7.18;;;12.00;99.90;;;;;;5111480;27;20024;-61
2020/12/23 09:33:19;;;;;;;8.20;5.97;;;12.00;99.90;;;;;;5106377;28;20020;-61
2020/12/23 09:35:46;;;;;;;10.85;7.25;;;12.10;99.90;;;;;;5105516;28;20051;-61
2020/12/23 09:38:34;;;;;;;8.35;6.72;;;12.10;99.90;;;;;;5108027;28;20107;-60
2020/12/23 09:41:00;;;;;;;14.80;8.50;;;12.10;99.90;;;;;;5105334;28;20259;-61
2020/12/23 09:43:28;;;;;;;13.48;8.93;;;12.10;99.90;;;;;;5108234;28;20027;-62
2020/12/23 09:45:56;;;;;;;10.25;7.50;;;12.10;99.90;;;;;;5101473;28;20038;-62
2020/12/23 09:48:23;;;;;;;14.40;8.77;;;12.10;99.90;;;;;;5108168;28;20385;-62
2020/12/23 09:50:49;;;;;;;16.10;9.38;;;12.10;99.90;;;;;;5107441;28;20027;-62
2020/12/23 09:53:15;;;;;;;13.77;8.43;;;12.00;99.90;;;;;;5108742;28;20031;-62
2020/12/23 09:55:42;;;;;;;8.45;7.22;;;12.00;99.90;;;;;;5109315;28;20038;-62
2020/12/23 09:58:08;;;;;;;14.55;8.80;;;12.00;99.90;;;;;;5109290;28;20043;-62
2020/12/23 10:00:34;;;;;;;18.60;8.18;;;11.90;99.90;;;;;;5112348;28;20024;-62
2020/12/23 10:02:59;;;;;;;17.63;7.70;;;11.90;99.90;;;;;;5112150;28;20392;-62
2020/12/23 10:05:26;;;;;;;14.52;8.77;;;11.90;99.90;;;;;;5113458;28;20023;-62
2020/12/23 10:07:52;;;;;;;18.50;7.30;;;11.80;99.90;;;;;;5114417;27;20030;-61
2020/12/23 10:10:17;;;;;;;16.05;8.50;;;11.70;99.90;;;;;;5112909;27;20028;-62
2020/12/23 10:12:43;;;;;;;8.70;6.10;;;11.70;99.90;;;;;;5113903;27;20023;-61
2020/12/23 10:15:08;;;;;;;13.18;7.32;;;11.80;99.90;;;;;;5112009;27;20015;-62
2020/12/23 10:17:34;;;;;;;8.10;6.22;;;11.70;99.90;;;;;;5112289;27;20046;-61
2020/12/23 10:20:00;;;;;;;9.98;6.70;;;11.70;99.90;;;;;;5114430;27;20035;-62
2020/12/23 10:22:26;;;;;;;8.50;6.13;;;11.70;99.90;;;;;;5117540;27;20034;-62
2020/12/23 10:24:52;;;;;;;12.43;6.18;;;11.80;99.90;;;;;;5114077;27;20416;-62
2020/12/23 10:27:17;;;;;;;8.57;4.80;;;11.80;99.90;;;;;;5108632;28;20251;-60
2020/12/23 10:29:43;;;;;;;6.45;3.95;;;11.90;99.90;;;;;;5113183;27;20012;-62
2020/12/23 10:32:09;;;;;;;5.07;3.45;;;11.90;99.90;;;;;;5114909;27;20073;-61
2020/12/23 10:34:34;;;;;;;7.95;4.22;;;11.90;99.90;;;;;;5112241;28;20020;-61
2020/12/23 10:37:00;;;;;;;12.13;4.13;;;11.80;99.90;;;;;;5113196;27;20567;-61
2020/12/23 10:39:26;;;;;;;16.10;5.95;;;11.80;99.90;;;;;;5125537;27;20027;-61
2020/12/23 10:41:53;;;;;;;14.75;5.47;;;11.80;99.90;;;;;;5114026;27;20028;-63
2020/12/23 10:44:20;;;;;;;12.48;4.43;;;11.80;99.90;;;;;;5110085;28;20048;-63
2020/12/23 10:46:45;;;;;;;6.35;4.97;;;11.80;99.90;;;;;;5102903;28;20072;-60
2020/12/23 10:49:11;;;;;;;8.73;4.88;;;11.80;99.90;;;;;;5110516;28;20043;-61
2020/12/23 10:51:37;;;;;;;11.57;6.30;;;11.70;99.90;;;;;;5113416;27;20031;-62
2020/12/23 10:54:02;;;;;;;10.27;6.68;;;11.70;99.90;;;;;;5114057;27;20084;-61
2020/12/23 10:56:28;;;;;;;14.77;7.75;;;11.70;99.90;;;;;;5113161;28;20019;-61
2020/12/23 10:58:54;;;;;;;16.30;9.27;;;11.70;99.90;;;;;;5130230;27;20023;-61
2020/12/23 11:01:20;;;;;;;15.68;10.85;;;11.70;99.90;;;;;;5134964;28;20053;-60
2020/12/23 11:03:46;;;;;;;18.45;11.88;;;11.70;99.90;;;;;;5133278;28;20007;-60
2020/12/23 11:06:15;;;;;;;24.08;13.43;;;11.70;99.90;;;;;;5114683;28;20091;-62
2020/12/23 11:08:41;;;;;;;25.30;14.10;;;11.70;99.90;;;;;;5116443;27;20020;-60
2020/12/23 11:11:11;;;;;;;26.63;15.00;;;11.70;99.90;;;;;;5117695;27;20019;-61
2020/12/23 11:13:37;;;;;;;22.83;14.50;;;11.70;99.90;;;;;;5110201;27;20015;-63
2020/12/23 11:16:02;;;;;;;22.45;16.00;;;11.80;99.90;;;;;;5113659;28;20045;-61
2020/12/23 11:18:28;;;;;;;19.90;14.43;;;11.80;99.90;;;;;;5113588;28;20020;-60
2020/12/23 11:20:53;;;;;;;22.33;15.35;;;11.80;99.90;;;;;;5114106;28;20031;-62
2020/12/23 11:23:26;;;;;;;22.38;15.15;;;11.80;99.90;;;;;;5113326;28;20496;-61
2020/12/23 11:25:52;;;;;;;18.30;14.07;;;11.80;99.90;;;;;;5112561;27;20052;-61
2020/12/23 11:28:18;;;;;;;16.95;13.52;;;11.90;99.90;;;;;;5113441;28;20157;-61
2020/12/23 11:30:44;;;;;;;21.15;14.98;;;11.90;99.90;;;;;;5111056;28;20061;-61
2020/12/23 11:33:10;;;;;;;15.52;13.15;;;12.00;99.90;;;;;;5112738;28;20481;-60
2020/12/23 11:35:35;;;;;;;18.42;14.07;;;12.00;99.90;;;;;;5113163;28;20105;-60
2020/12/23 11:38:01;;;;;;;19.50;14.05;;;12.00;99.90;;;;;;5112625;28;20137;-60
2020/12/23 11:40:26;;;;;;;20.35;13.60;;;12.00;99.90;;;;;;5114460;27;20027;-61
2020/12/23 11:42:52;;;;;;;20.73;13.45;;;12.10;99.90;;;;;;5112551;28;20118;-61
2020/12/23 11:45:17;;;;;;;14.32;12.52;;;12.10;99.90;;;;;;5113914;28;20404;-61
2020/12/23 11:47:43;;;;;;;14.13;12.20;;;12.10;99.90;;;;;;5112810;28;20039;-61
2020/12/23 11:50:09;;;;;;;14.50;12.18;;;12.10;99.90;;;;;;5111995;28;20020;-61
2020/12/23 11:52:35;;;;;;;16.02;11.27;;;12.00;99.90;;;;;;5100475;27;20054;-62
2020/12/23 11:55:00;;;;;;;11.98;9.45;;;12.00;99.90;;;;;;5103071;28;20060;-61
2020/12/23 11:57:26;;;;;;;12.07;9.90;;;12.00;99.90;;;;;;5100851;28;20051;-59
2020/12/23 11:59:51;;;;;;;10.77;8.65;;;12.10;99.90;;;;;;5112422;28;20019;-61
2020/12/23 12:02:17;;;;;;;8.52;7.63;;;12.10;99.90;;;;;;5121272;27;20023;-61
2020/12/23 12:04:42;;;;;;;13.10;6.85;;;12.20;99.90;;;;;;5115696;27;20024;-61
2020/12/23 12:07:08;;;;;;;9.57;7.68;;;12.20;99.90;;;;;;5118566;28;20023;-61
2020/12/23 12:09:33;;;;;;;8.07;6.28;;;12.10;99.90;;;;;;5141443;27;20119;-61
2020/12/23 12:11:59;;;;;;;7.72;6.50;;;12.20;99.90;;;;;;5134279;27;20023;-60
2020/12/23 12:14:25;;;;;;;7.50;5.72;;;12.10;99.90;;;;;;5132772;27;20500;-60
2020/12/23 12:16:50;;;;;;;6.15;5.55;;;12.20;99.90;;;;;;5130750;28;20085;-60
2020/12/23 12:19:16;;;;;;;5.63;5.03;;;12.10;99.90;;;;;;5113870;28;20047;-61
2020/12/23 12:21:42;;;;;;;7.30;4.55;;;12.20;99.90;;;;;;5112945;28;20047;-61
2020/12/23 12:24:07;;;;;;;7.65;4.55;;;12.10;99.90;;;;;;5109707;28;20245;-61
2020/12/23 12:26:34;;;;;;;4.80;4.15;;;12.10;99.90;;;;;;5112200;28;20024;-61
2020/12/23 12:29:00;;;;;;;7.65;4.32;;;12.20;99.90;;;;;;5108357;28;20341;-62